Time;durP1;ratioP1;P1;durP2;ratioP2;P2;SDS_P1;SDS_P2;PMS_P1;PMS_P2;Temp;Humidity;BMP_temperature;BMP_pressure;BME280_temperature;BME280_humidity;BME280_pressure;Samples;Min_cycle;Max_cycle;Signal;HPM_P1;HPM_P2
2021/07/12 00:02:19;;;;;;;6.05;2.45;;;;;;;25.20;47.01;101115.28;4976536;28;20058;-61
2021/07/12 00:04:44;;;;;;;3.50;2.00;;;;;;;25.19;46.81;101121.81;4976854;28;20061;-61
2021/07/12 00:07:09;;;;;;;2.88;2.05;;;;;;;25.17;46.85;101123.94;4976423;28;20030;-61
2021/07/12 00:09:35;;;;;;;3.83;2.47;;;;;;;25.16;46.91;101119.50;4977549;28;20054;-61
2021/07/12 00:12:00;;;;;;;2.53;1.92;;;;;;;25.14;47.31;101127.97;4976583;28;20117;-61
2021/07/12 00:14:25;;;;;;;7.50;1.85;;;;;;;25.10;46.87;101121.22;4976831;28;20026;-61
2021/07/12 00:16:51;;;;;;;2.17;1.98;;;;;;;25.07;47.13;101115.34;4976224;28;20026;-61
2021/07/12 00:19:16;;;;;;;3.55;2.10;;;;;;;25.05;47.05;101118.28;4976819;28;20042;-61
2021/07/12 00:21:43;;;;;;;2.25;1.77;;;;;;;25.02;46.85;101113.22;4976475;28;20026;-61
2021/07/12 00:24:08;;;;;;;5.63;2.00;;;;;;;25.00;47.37;101117.25;4976218;28;20057;-61
2021/07/12 00:26:34;;;;;;;4.15;2.08;;;;;;;24.96;47.47;101102.31;4976768;28;20058;-61
2021/07/12 00:28:59;;;;;;;2.65;2.25;;;;;;;24.94;46.56;101102.50;5007982;28;20023;-60
2021/07/12 00:31:24;;;;;;;4.22;2.22;;;;;;;24.90;46.58;101104.84;4976497;28;20031;-61
2021/07/12 00:33:50;;;;;;;2.88;1.77;;;;;;;24.83;46.89;101103.19;4976213;28;20084;-60
2021/07/12 00:36:15;;;;;;;3.63;2.58;;;;;;;24.84;46.76;101104.88;4976198;28;20105;-61
2021/07/12 00:38:41;;;;;;;5.30;2.63;;;;;;;24.81;47.10;101099.81;4975888;28;20026;-61
2021/07/12 00:41:06;;;;;;;3.70;2.67;;;;;;;24.79;47.10;101100.03;4975996;28;20023;-61
2021/07/12 00:43:32;;;;;;;5.25;2.22;;;;;;;24.76;46.73;101092.19;4976137;28;20102;-61
2021/07/12 00:45:57;;;;;;;3.55;2.25;;;;;;;24.70;47.01;101079.38;4975870;28;20420;-61
2021/07/12 00:48:23;;;;;;;3.90;2.55;;;;;;;24.71;46.79;101089.25;4975939;28;20384;-61
2021/07/12 00:50:48;;;;;;;6.68;2.30;;;;;;;24.69;47.27;101094.13;4975922;28;20455;-60
2021/07/12 00:53:14;;;;;;;6.38;2.20;;;;;;;24.67;47.82;101090.78;4975773;28;20058;-60
2021/07/12 00:55:47;;;;;;;3.20;2.22;;;;;;;24.67;47.51;101084.44;4974677;28;20133;-60
2021/07/12 00:58:21;;;;;;;2.67;1.98;;;;;;;24.64;47.36;101072.00;4975814;28;20023;-61
2021/07/12 01:00:49;;;;;;;3.08;2.42;;;;;;;24.62;47.15;101068.63;4974842;28;20038;-61
2021/07/12 01:03:16;;;;;;;7.57;2.55;;;;;;;24.59;47.82;101073.72;5006882;28;20471;-61
2021/07/12 01:05:42;;;;;;;4.78;2.17;;;;;;;24.59;47.47;101068.22;4974564;28;20030;-60
2021/07/12 01:08:08;;;;;;;3.17;2.10;;;;;;;24.57;47.36;101071.16;4975578;28;20468;-60
2021/07/12 01:10:34;;;;;;;2.58;2.05;;;;;;;24.56;47.05;101064.03;4975608;28;20027;-61
2021/07/12 01:13:10;;;;;;;3.28;2.80;;;;;;;24.55;48.05;101062.34;4975561;28;20029;-60
2021/07/12 01:16:11;;;;;;;3.28;1.95;;;;;;;24.50;47.18;101053.91;4974727;28;20214;-61
2021/07/12 01:18:46;;;;;;;3.40;2.28;;;;;;;24.52;47.95;101062.75;4963711;28;20057;-60
2021/07/12 01:22:09;;;;;;;2.85;2.17;;;;;;;24.49;47.92;101065.94;5006601;28;20038;-61
2021/07/12 01:25:11;;;;;;;6.30;2.38;;;;;;;24.46;48.01;101063.63;4973238;28;20035;-61
2021/07/12 01:28:14;;;;;;;2.40;1.95;;;;;;;24.44;47.75;101067.63;4973267;28;20039;-61
2021/07/12 01:31:10;;;;;;;3.20;2.17;;;;;;;24.40;47.72;101069.94;4975287;28;20070;-60
2021/07/12 01:33:55;;;;;;;2.08;1.88;;;;;;;24.34;47.89;101057.94;4975039;28;20050;-61
2021/07/12 01:36:29;;;;;;;3.63;2.15;;;;;;;24.37;48.00;101070.41;4974014;28;20422;-61
2021/07/12 01:38:57;;;;;;;4.00;2.20;;;;;;;24.37;47.27;101064.91;5006590;28;20077;-61
2021/07/12 01:41:33;;;;;;;4.80;2.30;;;;;;;24.36;47.84;101071.44;4975436;28;20035;-61
2021/07/12 01:44:08;;;;;;;4.10;2.35;;;;;;;24.35;48.28;101072.47;4975141;28;20030;-61
2021/07/12 01:46:40;;;;;;;3.50;2.78;;;;;;;24.35;47.58;101061.53;4974880;28;20096;-61
2021/07/12 01:49:23;;;;;;;6.35;2.42;;;;;;;24.33;48.13;101063.66;4975237;28;20361;-61
2021/07/12 01:52:02;;;;;;;4.00;1.98;;;;;;;24.30;47.83;101061.34;4975077;28;20026;-61
2021/07/12 01:55:12;;;;;;;4.50;2.53;;;;;;;24.29;48.18;101056.91;4974567;28;20074;-61
2021/07/12 01:57:48;;;;;;;8.30;2.42;;;;;;;24.25;48.55;101050.19;4974861;28;20495;-61
2021/07/12 02:00:14;;;;;;;5.93;3.08;;;;;;;24.22;47.17;101051.44;4989736;28;20497;-61
2021/07/12 02:02:44;;;;;;;2.55;1.80;;;;;;;24.19;47.91;101042.81;5006712;28;20110;-61
2021/07/12 02:05:13;;;;;;;4.38;2.50;;;;;;;24.16;47.69;101037.75;4974931;28;20030;-61
2021/07/12 02:07:39;;;;;;;3.40;2.40;;;;;;;24.13;48.24;101029.97;4973200;28;20078;-62
2021/07/12 02:10:05;;;;;;;7.50;2.50;;;;;;;24.15;47.69;101041.53;4973399;28;20023;-61
2021/07/12 02:12:33;;;;;;;6.93;2.53;;;;;;;24.13;48.36;101038.19;4974893;28;20033;-61
2021/07/12 02:14:59;;;;;;;2.53;1.90;;;;;;;24.12;47.97;101033.78;4973776;28;20030;-61
2021/07/12 02:17:25;;;;;;;6.15;2.35;;;;;;;24.10;47.98;101023.03;5006876;28;20031;-61
2021/07/12 02:19:51;;;;;;;3.88;2.13;;;;;;;24.09;48.42;101029.53;5010170;28;20029;-61
2021/07/12 02:22:17;;;;;;;3.17;2.42;;;;;;;24.07;47.78;101020.69;5009934;28;20085;-61
2021/07/12 02:24:45;;;;;;;4.18;2.75;;;;;;;24.06;48.47;101020.91;5010034;28;20027;-61
2021/07/12 02:27:10;;;;;;;3.13;2.70;;;;;;;24.03;48.10;101013.13;4977428;28;20023;-61
2021/07/12 02:29:36;;;;;;;4.40;2.28;;;;;;;24.02;47.75;101016.91;5010076;28;20046;-61
2021/07/12 02:32:02;;;;;;;3.47;2.20;;;;;;;23.95;47.62;101008.72;5009885;28;20037;-61
2021/07/12 02:34:28;;;;;;;5.38;2.88;;;;;;;23.99;48.32;101011.84;5009919;28;20030;-61
2021/07/12 02:36:54;;;;;;;4.45;2.53;;;;;;;23.94;47.68;101006.16;4978214;28;20019;-61
2021/07/12 02:39:20;;;;;;;4.70;2.50;;;;;;;23.97;47.77;101014.81;4978073;28;20391;-61
2021/07/12 02:41:46;;;;;;;4.13;2.08;;;;;;;23.97;47.80;101005.75;5009834;28;20464;-60
2021/07/12 02:44:13;;;;;;;2.85;2.53;;;;;;;23.97;48.64;101014.81;4977194;28;20066;-61
2021/07/12 02:46:40;;;;;;;3.65;2.50;;;;;;;23.95;48.37;101014.19;5009239;28;20499;-61
2021/07/12 02:49:05;;;;;;;3.10;2.80;;;;;;;23.95;48.16;101018.81;4978179;28;20451;-61
2021/07/12 02:51:35;;;;;;;6.10;2.47;;;;;;;23.92;47.76;101017.34;4977897;28;20026;-61
2021/07/12 02:54:05;;;;;;;3.95;2.58;;;;;;;23.89;47.72;101017.75;4977063;28;20105;-61
2021/07/12 02:56:31;;;;;;;4.13;2.72;;;;;;;23.87;48.40;101017.09;4977211;28;20018;-61
2021/07/12 02:58:58;;;;;;;4.55;2.80;;;;;;;23.82;48.00;101008.69;5009107;28;20077;-61
2021/07/12 03:01:23;;;;;;;4.20;2.50;;;;;;;23.85;48.61;101010.16;4978592;28;20035;-61
2021/07/12 03:03:49;;;;;;;3.88;3.15;;;;;;;23.84;48.58;101005.75;4977770;28;20026;-61
2021/07/12 03:06:16;;;;;;;4.30;2.42;;;;;;;23.80;48.57;100996.28;4977926;28;20484;-61
2021/07/12 03:09:02;;;;;;;3.20;2.70;;;;;;;23.76;48.49;101004.06;4977898;28;20034;-60
2021/07/12 03:11:47;;;;;;;6.25;2.53;;;;;;;23.72;47.77;101006.41;5009278;28;20037;-60
2021/07/12 03:14:18;;;;;;;4.55;3.08;;;;;;;23.70;48.25;100992.06;5009166;28;20027;-61
2021/07/12 03:16:43;;;;;;;3.95;2.65;;;;;;;23.66;48.26;100985.34;4977734;28;20111;-61
2021/07/12 03:19:16;;;;;;;5.47;2.65;;;;;;;23.64;48.59;100987.47;5009060;28;20107;-61
2021/07/12 03:21:43;;;;;;;3.92;2.47;;;;;;;23.65;47.69;100989.13;4976441;28;20038;-61
2021/07/12 03:24:09;;;;;;;3.83;2.47;;;;;;;23.65;47.69;100989.13;4976031;28;20112;-61
2021/07/12 03:26:39;;;;;;;2.72;2.42;;;;;;;23.62;48.97;100981.34;4977417;28;20025;-61
2021/07/12 03:29:05;;;;;;;6.00;2.60;;;;;;;23.63;48.75;100980.31;5007521;28;20419;-61
2021/07/12 03:31:31;;;;;;;3.70;2.38;;;;;;;23.60;48.64;100969.78;4977207;28;20058;-61
2021/07/12 03:33:57;;;;;;;4.53;2.70;;;;;;;23.59;47.84;100970.81;5008729;28;20022;-61
2021/07/12 03:36:23;;;;;;;5.47;2.75;;;;;;;23.57;47.63;100974.81;4977377;28;20023;-61
2021/07/12 03:38:48;;;;;;;6.40;2.80;;;;;;;23.56;48.60;100982.19;4991981;28;20019;-61
2021/07/12 03:41:15;;;;;;;3.90;2.55;;;;;;;23.51;48.00;100965.56;5008381;28;20207;-61
2021/07/12 03:43:41;;;;;;;4.78;2.45;;;;;;;23.48;48.60;100960.50;4977564;28;20492;-61
2021/07/12 03:46:06;;;;;;;4.50;2.22;;;;;;;23.55;47.81;100977.78;4976965;28;20029;-61
2021/07/12 03:48:45;;;;;;;5.18;2.40;;;;;;;23.53;48.27;100968.94;4977030;28;20023;-61
2021/07/12 03:51:12;;;;;;;4.70;2.78;;;;;;;23.53;49.04;100959.91;4977046;28;20419;-62
2021/07/12 03:53:38;;;;;;;6.80;2.88;;;;;;;23.52;48.78;100959.06;4976634;28;20069;-61
2021/07/12 03:56:04;;;;;;;3.60;2.72;;;;;;;23.43;47.85;100945.78;4976889;28;20023;-62
2021/07/12 03:58:30;;;;;;;5.47;2.97;;;;;;;23.52;47.94;100958.19;4976955;28;20102;-61
2021/07/12 04:00:56;;;;;;;3.35;2.55;;;;;;;23.51;49.14;100971.03;4976987;28;20451;-62
2021/07/12 04:03:21;;;;;;;7.75;2.40;;;;;;;23.52;48.08;100977.34;4975362;28;20027;-62
2021/07/12 04:05:46;;;;;;;6.07;2.45;;;;;;;23.51;48.85;100965.56;4976816;28;20572;-61
2021/07/12 04:08:12;;;;;;;6.88;2.30;;;;;;;23.49;48.84;100962.22;4976368;28;20464;-61
2021/07/12 04:10:38;;;;;;;5.28;2.20;;;;;;;23.49;48.70;100956.72;4976471;28;20030;-62
2021/07/12 04:13:04;;;;;;;8.73;3.03;;;;;;;23.49;48.30;100966.81;4976708;28;20033;-61
2021/07/12 04:15:29;;;;;;;4.70;2.53;;;;;;;23.53;48.88;100977.16;4976671;28;20038;-61
2021/07/12 04:17:54;;;;;;;7.35;3.58;;;;;;;23.55;48.61;100977.78;4976615;28;20361;-61
2021/07/12 04:20:20;;;;;;;7.45;3.45;;;;;;;23.59;48.46;100965.34;4976593;28;20019;-62
2021/07/12 04:22:45;;;;;;;5.15;3.10;;;;;;;23.60;48.29;100956.09;4976531;28;20053;-62
2021/07/12 04:25:12;;;;;;;5.00;2.90;;;;;;;23.62;48.89;100956.72;4976196;28;20097;-61
2021/07/12 04:27:37;;;;;;;6.65;3.17;;;;;;;23.63;49.12;100958.41;4975928;28;20034;-61
2021/07/12 04:30:07;;;;;;;6.20;2.95;;;;;;;23.67;48.70;100964.31;4976348;28;20109;-61
2021/07/12 04:32:33;;;;;;;4.35;2.92;;;;;;;23.75;48.38;100970.41;4976055;28;20033;-62
2021/07/12 04:34:58;;;;;;;4.75;3.05;;;;;;;23.78;48.50;100972.69;4976279;28;20023;-61
2021/07/12 04:37:23;;;;;;;3.70;2.55;;;;;;;23.83;48.19;100966.63;4976500;28;20373;-61
2021/07/12 04:39:49;;;;;;;6.20;3.15;;;;;;;23.88;48.25;100968.69;4976537;28;20037;-62
2021/07/12 04:42:14;;;;;;;4.28;2.67;;;;;;;23.93;49.19;100964.28;4976106;28;20042;-61
2021/07/12 04:44:40;;;;;;;3.80;2.60;;;;;;;23.99;48.22;100968.06;4975949;28;20176;-62
2021/07/12 04:47:05;;;;;;;4.20;2.97;;;;;;;24.05;49.10;100961.72;4974339;28;20069;-62
2021/07/12 04:49:31;;;;;;;7.15;2.67;;;;;;;24.12;48.21;100974.38;4975930;28;20030;-61
2021/07/12 04:51:56;;;;;;;5.55;2.97;;;;;;;24.18;48.32;100967.19;4975858;28;20142;-61
2021/07/12 04:54:22;;;;;;;3.15;2.45;;;;;;;24.22;49.13;100963.84;4975505;28;20050;-62
2021/07/12 04:56:47;;;;;;;7.57;2.85;;;;;;;24.27;49.08;100963.19;4975804;28;20081;-62
2021/07/12 04:59:13;;;;;;;3.20;2.63;;;;;;;24.31;48.42;100961.72;4975996;28;20409;-62
2021/07/12 05:01:40;;;;;;;5.57;2.60;;;;;;;24.35;48.90;100968.41;4976241;28;20026;-62
2021/07/12 05:04:06;;;;;;;6.88;2.67;;;;;;;24.42;48.87;100958.28;4975698;28;20364;-62
2021/07/12 05:06:32;;;;;;;5.80;2.63;;;;;;;24.48;48.86;100956.59;4975511;28;20030;-61
2021/07/12 05:08:57;;;;;;;4.80;2.80;;;;;;;24.53;48.19;100951.28;4975540;28;20046;-61
2021/07/12 05:11:27;;;;;;;5.25;2.95;;;;;;;24.59;48.21;100947.69;4975789;28;20031;-61
2021/07/12 05:13:52;;;;;;;7.63;2.38;;;;;;;24.66;48.33;100943.84;5006819;28;20058;-62
2021/07/12 05:16:19;;;;;;;3.85;3.15;;;;;;;24.71;48.31;100938.56;4975216;28;20121;-62
2021/07/12 05:18:45;;;;;;;5.60;2.53;;;;;;;24.77;48.37;100934.94;4975564;28;20102;-62
2021/07/12 05:21:10;;;;;;;6.40;3.50;;;;;;;24.79;48.06;100927.38;4975143;28;20062;-62
2021/07/12 05:23:37;;;;;;;4.60;3.30;;;;;;;24.82;47.69;100921.44;4975414;28;20033;-61
2021/07/12 05:26:02;;;;;;;8.25;3.00;;;;;;;24.86;47.80;100917.22;4975281;28;20468;-62
2021/07/12 05:28:28;;;;;;;7.20;2.40;;;;;;;24.86;48.20;100917.22;4975245;28;20061;-61
2021/07/12 05:30:53;;;;;;;8.00;2.40;;;;;;;24.85;48.21;100918.25;4986139;28;20117;-61
2021/07/12 05:33:18;;;;;;;6.85;2.42;;;;;;;24.86;48.09;100919.97;4993190;28;20030;-61
2021/07/12 05:35:44;;;;;;;6.93;4.05;;;;;;;24.93;47.78;100917.16;4994538;28;20030;-61
2021/07/12 05:38:09;;;;;;;12.80;3.28;;;;;;;24.99;48.15;100927.25;4994532;28;20018;-62
2021/07/12 05:40:35;;;;;;;5.78;3.75;;;;;;;25.03;47.84;100928.50;4992987;28;20042;-61
2021/07/12 05:43:01;;;;;;;6.00;2.85;;;;;;;25.13;47.69;100930.72;4995097;28;20030;-61
2021/07/12 05:45:26;;;;;;;6.18;2.60;;;;;;;25.19;48.19;100927.94;4994705;28;20378;-60
2021/07/12 05:47:51;;;;;;;4.40;2.88;;;;;;;25.22;47.72;100929.41;4993383;28;20022;-61
2021/07/12 05:50:17;;;;;;;8.50;2.78;;;;;;;25.25;48.06;100926.22;4994969;28;20058;-60
2021/07/12 05:52:42;;;;;;;8.27;2.50;;;;;;;25.30;47.67;100919.00;4992602;28;20022;-60
2021/07/12 05:55:08;;;;;;;3.83;2.47;;;;;;;25.38;47.94;100915.13;4994189;28;20026;-60
2021/07/12 05:57:34;;;;;;;5.78;2.70;;;;;;;25.55;47.89;100909.97;4994343;28;20061;-61
2021/07/12 05:59:59;;;;;;;7.60;2.72;;;;;;;25.69;47.61;100901.38;4994448;28;20057;-61
2021/07/12 06:02:24;;;;;;;7.15;2.88;;;;;;;25.84;47.34;100895.53;4994492;28;20364;-60
2021/07/12 06:04:50;;;;;;;9.20;2.70;;;;;;;26.01;47.54;100900.22;4994168;28;20038;-61
2021/07/12 06:07:15;;;;;;;5.65;2.63;;;;;;;26.16;47.42;100890.78;4994309;28;20080;-60
2021/07/12 06:09:40;;;;;;;6.75;2.78;;;;;;;26.32;47.32;100895.66;4994393;28;20460;-61
2021/07/12 06:12:06;;;;;;;5.68;3.30;;;;;;;26.55;46.62;100901.25;4994361;28;20034;-61
2021/07/12 06:14:31;;;;;;;4.60;2.35;;;;;;;26.75;47.11;100909.22;4993984;28;20027;-61
2021/07/12 06:16:57;;;;;;;6.18;2.65;;;;;;;27.02;46.67;100911.41;4992691;28;20022;-58
2021/07/12 06:19:22;;;;;;;4.93;2.40;;;;;;;27.27;46.58;100908.47;4994318;28;20022;-58
2021/07/12 06:21:48;;;;;;;2.40;2.17;;;;;;;27.52;45.82;100913.81;4994290;28;20046;-58
2021/07/12 06:24:13;;;;;;;6.15;2.63;;;;;;;27.80;45.28;100916.69;4994012;28;20473;-59
2021/07/12 06:26:38;;;;;;;5.22;3.08;;;;;;;28.08;45.27;100908.56;4993983;28;20471;-60
2021/07/12 06:29:04;;;;;;;5.57;2.28;;;;;;;28.37;44.76;100903.06;4994219;28;20464;-59
2021/07/12 06:31:29;;;;;;;5.90;2.40;;;;;;;28.63;44.84;100894.28;4994457;28;20031;-59
2021/07/12 06:33:55;;;;;;;2.55;2.08;;;;;;;28.87;44.58;100901.34;4993936;28;20027;-59
2021/07/12 06:36:20;;;;;;;3.53;2.47;;;;;;;29.08;44.28;100886.84;4994013;28;20032;-59
2021/07/12 06:38:45;;;;;;;3.55;2.10;;;;;;;29.35;44.07;100898.94;4994093;28;20050;-59
2021/07/12 06:41:11;;;;;;;5.22;2.72;;;;;;;29.55;44.17;100903.09;4993966;28;20084;-58
2021/07/12 06:43:36;;;;;;;2.33;2.00;;;;;;;29.77;43.60;100906.75;4994661;28;20089;-59
2021/07/12 06:46:01;;;;;;;3.03;2.13;;;;;;;30.02;43.72;100909.94;4994068;28;20109;-59
2021/07/12 06:48:27;;;;;;;3.38;1.83;;;;;;;30.23;43.23;100911.91;4993539;28;20096;-59
2021/07/12 06:50:54;;;;;;;4.25;1.70;;;;;;;30.44;42.71;100911.06;4994162;28;20026;-59
2021/07/12 06:53:19;;;;;;;4.13;1.88;;;;;;;30.61;42.60;100912.94;4993326;28;20077;-59
2021/07/12 06:55:45;;;;;;;2.50;2.03;;;;;;;30.74;42.42;100907.00;4993860;28;20481;-60
2021/07/12 06:58:12;;;;;;;2.67;1.48;;;;;;;30.93;42.15;100900.03;4993902;28;20460;-60
2021/07/12 07:00:39;;;;;;;2.90;1.40;;;;;;;31.09;41.99;100888.84;4993852;28;20026;-59
2021/07/12 07:03:04;;;;;;;4.07;1.55;;;;;;;31.30;41.67;100892.63;4994234;28;20023;-59
2021/07/12 07:05:30;;;;;;;3.47;1.30;;;;;;;31.53;41.59;100905.31;4997049;28;20391;-59
2021/07/12 07:07:56;;;;;;;2.75;1.80;;;;;;;31.67;41.25;100900.97;4997175;28;20064;-59
2021/07/12 07:10:21;;;;;;;3.22;2.35;;;;;;;31.75;40.66;100903.25;4996957;28;20037;-60
2021/07/12 07:12:47;;;;;;;2.47;1.38;;;;;;;31.77;40.80;100883.59;4997203;28;20473;-60
2021/07/12 07:15:12;;;;;;;2.33;1.23;;;;;;;31.91;40.38;100891.16;4996870;28;20026;-59
2021/07/12 07:17:38;;;;;;;5.57;1.70;;;;;;;32.03;40.97;100877.09;4995610;28;20442;-59
2021/07/12 07:20:04;;;;;;;2.92;1.73;;;;;;;32.10;40.35;100874.94;4996667;28;20427;-59
2021/07/12 07:22:29;;;;;;;4.65;1.33;;;;;;;32.21;39.90;100868.34;4997235;28;20477;-59
2021/07/12 07:24:55;;;;;;;4.43;1.70;;;;;;;32.38;40.06;100863.41;4996940;28;20101;-60
2021/07/12 07:27:20;;;;;;;2.65;1.55;;;;;;;32.59;40.02;100859.63;4996764;28;20061;-59
2021/07/12 07:29:46;;;;;;;3.03;1.75;;;;;;;32.72;39.73;100853.53;4996840;28;20463;-59
2021/07/12 07:32:12;;;;;;;3.53;1.65;;;;;;;32.95;39.67;100857.72;4996468;28;20443;-59
2021/07/12 07:34:37;;;;;;;3.28;1.63;;;;;;;33.10;38.27;100854.16;4996794;28;20113;-59
2021/07/12 07:37:03;;;;;;;2.30;1.60;;;;;;;33.31;38.95;100866.94;4996752;28;20459;-60
2021/07/12 07:39:28;;;;;;;4.03;1.45;;;;;;;33.45;38.35;100851.34;4996652;28;20121;-60
2021/07/12 07:41:55;;;;;;;2.53;1.50;;;;;;;33.63;37.76;100856.38;4996820;28;20136;-60
2021/07/12 07:44:21;;;;;;;3.92;1.70;;;;;;;33.76;38.90;100855.78;4996565;28;20035;-60
2021/07/12 07:46:46;;;;;;;3.28;1.60;;;;;;;33.88;38.02;100850.75;4996244;28;20045;-60
2021/07/12 07:49:11;;;;;;;4.03;1.60;;;;;;;34.03;37.89;100849.03;4996460;28;20046;-60
2021/07/12 07:51:37;;;;;;;3.08;1.63;;;;;;;34.16;37.75;100840.09;4996151;28;20034;-59
2021/07/12 07:54:05;;;;;;;4.30;1.50;;;;;;;34.30;36.96;100833.66;4995943;28;20054;-60
2021/07/12 07:56:31;;;;;;;3.33;1.70;;;;;;;34.44;37.02;100825.50;4996406;28;20030;-60
2021/07/12 07:58:56;;;;;;;1.80;1.40;;;;;;;34.52;36.88;100822.09;4994805;28;20463;-60
2021/07/12 08:01:22;;;;;;;1.75;1.13;;;;;;;34.61;36.66;100814.84;4996209;28;20411;-60
2021/07/12 08:03:47;;;;;;;1.83;1.27;;;;;;;34.70;36.83;100806.72;4996500;28;20033;-59
2021/07/12 08:06:13;;;;;;;2.28;1.27;;;;;;;34.87;36.43;100813.53;4994747;28;20554;-60
2021/07/12 08:08:38;;;;;;;1.30;1.20;;;;;;;35.06;36.66;100808.09;4996463;28;20058;-60
2021/07/12 08:11:03;;;;;;;9.43;2.35;;;;;;;35.18;35.87;100814.13;4995805;28;20164;-60
2021/07/12 08:13:29;;;;;;;1.25;0.93;;;;;;;35.23;36.66;100799.34;4995722;28;20081;-59
2021/07/12 08:15:54;;;;;;;2.10;1.50;;;;;;;35.27;35.62;100795.66;4995328;28;20030;-59
2021/07/12 08:18:22;;;;;;;1.80;1.20;;;;;;;35.42;35.63;100791.91;4995878;28;20422;-59
2021/07/12 08:20:48;;;;;;;1.25;1.10;;;;;;;35.53;35.42;100793.44;4995518;28;20030;-60
2021/07/12 08:23:14;;;;;;;4.75;1.58;;;;;;;35.69;35.07;100781.03;4995872;28;20411;-59
2021/07/12 08:25:39;;;;;;;2.05;1.58;;;;;;;35.81;35.09;100784.22;4995480;28;20080;-60
2021/07/12 08:28:05;;;;;;;1.10;1.00;;;;;;;35.92;34.57;100785.75;4995318;28;20109;-60
2021/07/12 08:30:30;;;;;;;0.93;0.90;;;;;;;35.97;34.44;100770.91;4995694;28;20076;-60
2021/07/12 08:32:57;;;;;;;1.45;0.80;;;;;;;36.09;34.30;100780.56;4995606;28;20070;-60
2021/07/12 08:35:23;;;;;;;1.40;1.30;;;;;;;36.27;34.53;100780.88;4995601;28;20444;-60
2021/07/12 08:37:49;;;;;;;0.88;0.85;;;;;;;36.33;33.96;100774.06;4995234;28;20018;-60
2021/07/12 08:40:15;;;;;;;1.35;1.25;;;;;;;36.32;33.63;100772.41;4995448;28;20490;-60
2021/07/12 08:42:41;;;;;;;2.00;1.40;;;;;;;36.36;33.77;100768.72;4995447;28;20391;-60
2021/07/12 08:45:07;;;;;;;1.42;1.20;;;;;;;36.42;33.78;100755.50;4995137;28;20031;-60
2021/07/12 08:47:32;;;;;;;6.07;2.63;;;;;;;36.49;33.47;100758.75;4995253;28;20026;-60
2021/07/12 08:49:58;;;;;;;9.00;1.52;;;;;;;36.59;33.49;100755.84;4995285;28;20049;-60
2021/07/12 08:52:23;;;;;;;1.10;1.00;;;;;;;36.67;33.17;100755.13;4995049;28;20022;-60
2021/07/12 08:54:48;;;;;;;2.65;1.25;;;;;;;36.72;32.82;100755.88;4994610;28;20042;-59
2021/07/12 08:57:14;;;;;;;2.40;1.13;;;;;;;36.85;32.45;100759.88;4995184;28;20026;-60
2021/07/12 08:59:41;;;;;;;1.33;1.00;;;;;;;37.07;32.32;100751.69;4994776;28;20022;-59
2021/07/12 09:02:07;;;;;;;1.27;1.17;;;;;;;37.32;32.11;100748.41;4995044;28;20029;-59
2021/07/12 09:04:34;;;;;;;0.77;0.77;;;;;;;37.50;31.73;100748.66;4994836;28;20018;-59
2021/07/12 09:07:10;;;;;;;1.67;0.95;;;;;;;37.61;31.46;100745.34;4993464;28;20034;-60
2021/07/12 09:09:36;;;;;;;0.70;0.70;;;;;;;37.59;31.88;100746.78;4995015;28;20506;-60
2021/07/12 09:12:16;;;;;;;4.72;1.10;;;;;;;37.40;31.45;100751.63;4994677;28;20364;-60
2021/07/12 09:15:08;;;;;;;1.27;0.90;;;;;;;37.23;31.12;100743.84;4994924;28;20125;-60
2021/07/12 09:17:36;;;;;;;0.80;0.63;;;;;;;37.05;31.12;100739.97;4994621;28;20014;-60
2021/07/12 09:20:03;;;;;;;1.10;0.93;;;;;;;37.06;31.28;100752.81;4994459;28;20077;-60
2021/07/12 09:22:31;;;;;;;3.80;0.70;;;;;;;37.07;30.95;100746.09;4994471;28;20037;-60
2021/07/12 09:25:00;;;;;;;3.97;0.57;;;;;;;36.93;31.43;100733.19;4993326;28;20025;-60
2021/07/12 09:27:26;;;;;;;2.35;0.80;;;;;;;36.84;31.36;100738.66;4993542;28;20041;-60
2021/07/12 09:29:56;;;;;;;0.60;0.60;;;;;;;36.70;31.54;100724.66;4994480;28;20430;-60
2021/07/12 09:32:23;;;;;;;1.30;0.70;;;;;;;36.61;31.33;100723.69;4994688;28;20032;-60
2021/07/12 09:34:50;;;;;;;1.45;0.70;;;;;;;36.51;31.54;100721.06;4993542;28;20381;-60
2021/07/12 09:37:19;;;;;;;0.50;0.50;;;;;;;36.45;31.42;100727.81;4993618;28;20022;-60
2021/07/12 09:39:46;;;;;;;2.05;0.95;;;;;;;36.32;31.66;100727.75;4994616;28;20426;-60
2021/07/12 09:42:14;;;;;;;0.70;0.52;;;;;;;36.20;31.43;100726.25;4993348;28;20022;-59
2021/07/12 09:44:48;;;;;;;1.38;0.60;;;;;;;36.00;31.49;100732.09;4994808;28;20034;-60
2021/07/12 09:47:19;;;;;;;0.90;0.60;;;;;;;35.82;31.69;100730.09;4994209;28;20030;-60
2021/07/12 09:49:45;;;;;;;1.40;0.65;;;;;;;35.69;31.81;100730.00;4994229;28;20030;-60
2021/07/12 09:52:13;;;;;;;0.98;0.90;;;;;;;35.61;31.75;100739.84;4994459;28;20027;-60
2021/07/12 09:54:40;;;;;;;0.40;0.40;;;;;;;35.55;31.45;100741.03;4993800;28;20051;-59
2021/07/12 09:57:09;;;;;;;0.60;0.60;;;;;;;35.45;31.26;100738.34;4994441;28;20379;-60
2021/07/12 09:59:36;;;;;;;1.38;0.82;;;;;;;35.37;31.02;100733.44;4994378;28;20364;-59
2021/07/12 10:02:03;;;;;;;2.58;0.50;;;;;;;35.30;30.96;100730.97;4994113;28;20030;-60
2021/07/12 10:04:29;;;;;;;1.88;1.05;;;;;;;35.30;31.05;100732.94;4994322;28;20025;-60
2021/07/12 10:06:55;;;;;;;1.10;0.80;;;;;;;35.31;31.35;100724.28;4994205;28;20375;-60
2021/07/12 10:09:22;;;;;;;2.10;0.80;;;;;;;35.43;31.23;100733.06;4993306;28;20022;-60
2021/07/12 10:11:52;;;;;;;3.88;3.67;;;;;;;35.66;30.74;100725.84;4993995;28;20034;-60
2021/07/12 10:14:18;;;;;;;6.78;6.47;;;;;;;36.13;30.60;100727.75;4994256;28;20026;-60
2021/07/12 10:16:44;;;;;;;1.35;0.88;;;;;;;36.31;30.56;100720.50;4994238;28;20529;-60
2021/07/12 10:19:09;;;;;;;0.70;0.70;;;;;;;36.14;30.78;100716.31;4976530;28;20027;-60
2021/07/12 10:21:37;;;;;;;2.72;0.80;;;;;;;35.98;31.17;100719.56;4994485;28;20054;-60
2021/07/12 10:24:03;;;;;;;1.70;0.70;;;;;;;35.77;31.16;100719.00;4994192;28;20034;-60
2021/07/12 10:26:48;;;;;;;2.17;0.80;;;;;;;35.64;31.52;100716.97;4993914;28;20037;-60
2021/07/12 10:29:17;;;;;;;3.55;0.85;;;;;;;35.52;31.06;100724.88;4994127;28;20030;-60
2021/07/12 10:31:59;;;;;;;1.67;1.20;;;;;;;35.70;31.06;100701.84;4994079;28;20069;-60
2021/07/12 10:34:35;;;;;;;1.02;0.98;;;;;;;36.33;30.30;100712.66;4994421;28;20037;-60
2021/07/12 10:37:19;;;;;;;1.60;1.00;;;;;;;36.60;30.75;100707.25;4994030;28;20053;-59
2021/07/12 10:39:57;;;;;;;2.30;1.48;;;;;;;37.01;29.78;100712.97;4996553;28;20117;-59
2021/07/12 10:42:41;;;;;;;1.33;0.77;;;;;;;37.01;29.93;100716.59;4998000;28;20045;-60
2021/07/12 10:45:14;;;;;;;0.98;0.95;;;;;;;36.88;30.48;100719.31;4997402;28;20030;-59
2021/07/12 10:47:49;;;;;;;0.68;0.68;;;;;;;36.70;30.35;100715.44;4997529;28;20034;-60
2021/07/12 10:50:34;;;;;;;1.33;1.00;;;;;;;36.65;30.53;100718.31;4997308;28;20080;-59
2021/07/12 10:53:23;;;;;;;1.95;1.10;;;;;;;36.50;30.81;100721.34;4997067;28;20042;-59
2021/07/12 10:55:57;;;;;;;1.42;1.00;;;;;;;36.40;30.51;100725.13;4989081;28;20543;-60
2021/07/12 10:58:29;;;;;;;71.93;15.88;;;;;;;36.29;30.99;100723.63;4997366;28;20018;-59
2021/07/12 11:00:56;;;;;;;;;;;;;;;36.18;31.14;100717.34;4996200;28;20057;-59
2021/07/12 11:03:44;;;;;;;1.00;1.00;;;;;;;36.06;31.01;100724.50;4997203;28;19916;-59
2021/07/12 11:06:20;;;;;;;1.20;1.10;;;;;;;35.92;31.16;100718.81;4996146;28;20033;-60
2021/07/12 11:08:54;;;;;;;2.53;1.27;;;;;;;35.84;31.42;100721.44;4995915;28;20035;-60
2021/07/12 11:11:19;;;;;;;2.70;1.55;;;;;;;35.82;31.08;100724.50;4997147;28;20442;-60
2021/07/12 11:13:54;;;;;;;2.25;1.27;;;;;;;35.97;31.64;100721.53;4996977;28;20022;-60
2021/07/12 11:16:30;;;;;;;6.35;1.33;;;;;;;36.30;30.73;100718.84;4997135;28;20105;-59
2021/07/12 11:18:55;;;;;;;1.20;1.10;;;;;;;36.40;31.23;100716.75;4995985;28;20025;-59
2021/07/12 11:21:32;;;;;;;1.60;1.50;;;;;;;36.45;30.78;100721.41;4995876;28;20374;-60
2021/07/12 11:24:22;;;;;;;1.55;1.10;;;;;;;36.42;31.07;100711.69;4996888;28;20441;-59
2021/07/12 11:26:50;;;;;;;1.40;1.25;;;;;;;36.59;30.25;100722.31;4996577;28;20038;-59
2021/07/12 11:29:30;;;;;;;3.30;1.13;;;;;;;36.82;30.62;100713.00;4996641;28;20026;-59
2021/07/12 11:32:17;;;;;;;2.60;1.40;;;;;;;36.73;30.64;100709.25;4996915;28;20026;-60